Ryoka Maru No.103 — JG5593 — position and weather

sailwx.info

Track history (hours):
 
Tides and Currents Weather Stations Pressure Air Temp Water Temp Dewpoint Dewpoint Depression Visibility Wind Speed Wind Dir Waves Ship Positions

Ryoka Maru No.103

Last reported at 2018-Feb-23 08:30 UTC. Time now 2018-Feb-23 08:35 UTC.
Position N 34°52' E 136°42'.

Length 69 m; draft 4.5 m.

Type: Tanker. MMSI: 431401796.

Date/timePositionNaut miles runAvg speedWind from/ knotsBaromVisibWave heightAir tempDewpointWater temp
2018-Feb-23 08:30N 34°52' E 136°42'612.9
2018-Feb-23 08:00N 34°46' E 136°45'712.5
2018-Feb-23 07:28N 34°41' E 136°51'101 8.9
2018-Feb-22 20:07N 33°46' E 135°09'513.1
2018-Feb-22 19:42N 33°50' E 135°04'313.5
2018-Feb-22 19:31N 33°52' E 135°02'713.3
2018-Feb-22 19:01N 33°58' E 134°60'713.7
2018-Feb-22 18:30N 34°05' E 134°59'713.4
2018-Feb-22 18:00N 34°12' E 134°59'612.3
2018-Feb-22 17:31N 34°18' E 134°59'612.2
2018-Feb-22 17:01N 34°24' E 135°01'612.8
2018-Feb-22 16:31N 34°30' E 135°02'611.6
2018-Feb-22 16:00N 34°36' E 135°03'5 9.1
2018-Feb-22 15:30N 34°36' E 134°57'511.0
2018-Feb-22 15:00N 34°34' E 134°51'612.1
2018-Feb-22 14:30N 34°32' E 134°45'612.2
2018-Feb-22 14:00N 34°29' E 134°38'713.0
2018-Feb-22 13:27N 34°27' E 134°30'1312.8
2018-Feb-22 12:24N 34°24' E 134°14'4 0.3
2018-Feb-21 21:57N 34°24' E 134°19'613.2
2018-Feb-21 21:30N 34°26' E 134°26'613.3
2018-Feb-21 21:01N 34°29' E 134°33'713.2
2018-Feb-21 20:30N 34°31' E 134°40'713.1
2018-Feb-21 20:00N 34°33' E 134°48'612.6
2018-Feb-21 19:30N 34°36' E 134°55'611.9
2018-Feb-21 19:00N 34°37' E 135°02'510.8
2018-Feb-21 18:30N 34°32' E 135°05'713.4
2018-Feb-21 18:00N 34°26' E 135°02'713.4
2018-Feb-21 17:30N 34°19' E 135°00'713.4
2018-Feb-21 17:00N 34°13' E 134°59'713.5
2018-Feb-21 16:30N 34°06' E 135°00'713.2
2018-Feb-21 16:00N 33°59' E 135°01'713.3
2018-Feb-21 15:30N 33°53' E 135°02'713.4
2018-Feb-21 14:58N 33°47' E 135°07'101 9.4
2018-Feb-21 04:16N 34°39' E 136°52'413.8
2018-Feb-21 04:00N 34°42' E 136°49'714.0
2018-Feb-21 03:30N 34°48' E 136°45'713.5
2018-Feb-21 03:00N 34°54' E 136°42'4 7.8
2018-Feb-21 02:31N 34°57' E 136°38'0 0.0
2018-Feb-21 02:00N 34°57' E 136°38'0 0.0
2018-Feb-21 01:30N 34°57' E 136°38'0 0.0
2018-Feb-21 01:00N 34°57' E 136°38'0 0.0
2018-Feb-21 00:30N 34°57' E 136°38'0 0.7
2018-Feb-21 00:01N 34°57' E 136°39'1 2.5
2018-Feb-20 23:30N 34°57' E 136°40'0 0.0
2018-Feb-20 22:59N 34°57' E 136°40'0 0.1
2018-Feb-20 22:29N 34°57' E 136°40'0 0.0
2018-Feb-20 21:59N 34°57' E 136°40'0 0.0
2018-Feb-20 21:29N 34°57' E 136°40'0 0.1
2018-Feb-20 20:59N 34°57' E 136°40'0 0.0
2018-Feb-20 20:30N 34°57' E 136°40'4 8.4
2018-Feb-20 20:00N 34°53' E 136°43'713.0
2018-Feb-20 19:30N 34°48' E 136°46'712.7
2018-Feb-20 18:59N 34°42' E 136°50'1012.6
2018-Feb-20 18:13N 34°35' E 136°59'312.6
2018-Feb-20 17:57N 34°33' E 137°02'612.5
2018-Feb-20 17:28N 34°33' E 137°09'612.5
2018-Feb-20 17:00N 34°33' E 137°16'5011.8
2018-Feb-20 12:46N 34°34' E 138°17'410.0
2018-Feb-20 12:23N 34°34' E 138°22'4 9.5
2018-Feb-20 11:59N 34°34' E 138°26'5 9.6
2018-Feb-20 11:30N 34°35' E 138°32'610.8
2018-Feb-20 10:58N 34°35' E 138°39'510.9
2018-Feb-20 10:30N 34°35' E 138°45'611.0
2018-Feb-20 09:59N 34°35' E 138°52'611.8
2018-Feb-20 09:26N 34°37' E 138°59'614.1
2018-Feb-20 08:59N 34°42' E 139°04'714.1
2018-Feb-20 08:30N 34°48' E 139°09'713.1
2018-Feb-20 07:58N 34°53' E 139°14'612.1
2018-Feb-20 07:29N 34°57' E 139°20'612.3
2018-Feb-20 06:58N 35°00' E 139°26'612.5
2018-Feb-20 06:30N 35°03' E 139°33'612.7
2018-Feb-20 06:00N 35°06' E 139°39'613.0
2018-Feb-20 05:30N 35°10' E 139°45'612.6
2018-Feb-20 05:00N 35°17' E 139°45'612.4
2018-Feb-20 04:30N 35°22' E 139°42'612.4
2018-Feb-20 04:00N 35°27' E 139°47'812.5
2018-Feb-20 03:24N 35°31' E 139°55'511.9
2018-Feb-20 03:00N 35°32' E 140°01'2 4.7
2018-Feb-20 02:30N 35°32' E 140°03'0 0.0
2018-Feb-20 01:58N 35°32' E 140°03'0 0.0
2018-Feb-20 01:30N 35°32' E 140°03'0 0.0
2018-Feb-20 01:00N 35°32' E 140°03'0 0.0
2018-Feb-20 00:30N 35°32' E 140°03'0 0.0
2018-Feb-20 00:00N 35°32' E 140°03'0 0.5
2018-Feb-19 23:30N 35°32' E 140°03'3 6.0
2018-Feb-19 23:00N 35°31' E 139°60'1 0.9
2018-Feb-19 22:23N 35°30' E 139°60'0 0.0
2018-Feb-19 21:59N 35°30' E 139°60'0 0.0
2018-Feb-19 21:20N 35°30' E 139°60'0 0.0
2018-Feb-19 20:56N 35°30' E 139°60'0 0.0
2018-Feb-19 20:26N 35°30' E 139°60'0 0.0
2018-Feb-19 19:59N 35°30' E 139°60'0 0.0
2018-Feb-19 19:29N 35°30' E 139°60'1 2.4
2018-Feb-19 19:01N 35°30' E 139°58'612.9
2018-Feb-19 18:30N 35°28' E 139°51'713.1
2018-Feb-19 18:00N 35°23' E 139°46'612.2
2018-Feb-19 17:30N 35°17' E 139°46'612.7
2018-Feb-19 17:01N 35°10' E 139°47'713.0
2018-Feb-19 16:30N 35°05' E 139°43'713.1
2018-Feb-19 16:00N 34°60' E 139°37'713.3
2018-Feb-19 15:30N 34°56' E 139°30'713.5
2018-Feb-19 15:00N 34°52' E 139°24'714.1
2018-Feb-19 14:30N 34°48' E 139°17'914.3
2018-Feb-19 13:51N 34°42' E 139°08'513.4
2018-Feb-19 13:31N 34°39' E 139°04'713.7
2018-Feb-19 13:00N 34°36' E 138°56'714.1
2018-Feb-19 12:29N 34°34' E 138°48'713.4
2018-Feb-19 11:58N 34°34' E 138°39'714.2
2018-Feb-19 11:30N 34°33' E 138°31'713.9
2018-Feb-19 11:00N 34°33' E 138°23'713.7
2018-Feb-19 10:30N 34°32' E 138°15'1214.1
2018-Feb-19 09:40N 34°32' E 138°00'314.1
2018-Feb-19 09:26N 34°32' E 137°56'5213.1
2018-Feb-19 05:29N 34°37' E 136°54'613.2
2018-Feb-19 05:00N 34°41' E 136°49'713.8
2018-Feb-19 04:30N 34°48' E 136°45'713.3
2018-Feb-19 04:00N 34°54' E 136°41'4 8.3
2018-Feb-19 03:31N 34°57' E 136°38'0 0.1
2018-Feb-19 03:01N 34°57' E 136°38'0 0.0
2018-Feb-19 02:30N 34°57' E 136°38'0 0.0
2018-Feb-19 02:00N 34°57' E 136°38'0 0.1
2018-Feb-19 01:31N 34°57' E 136°38'0 0.4
2018-Feb-19 00:58N 34°57' E 136°39'3 6.2
2018-Feb-19 00:31N 34°57' E 136°42'1 2.3
2018-Feb-19 00:00N 34°56' E 136°43'0 0.1
2018-Feb-18 23:27N 34°56' E 136°43'0 0.0
2018-Feb-18 23:00N 34°56' E 136°43'0 0.0
2018-Feb-18 22:27N 34°56' E 136°43'0 0.0
2018-Feb-18 22:00N 34°56' E 136°43'0 0.0
2018-Feb-18 21:30N 34°56' E 136°43'0 0.0
2018-Feb-18 21:00N 34°56' E 136°43'0 0.0
2018-Feb-18 20:30N 34°56' E 136°43'2 3.5
2018-Feb-18 20:00N 34°54' E 136°43'611.8
2018-Feb-18 19:30N 34°49' E 136°45'712.7
2018-Feb-18 18:58N 34°43' E 136°50'813.0
2018-Feb-18 18:23N 34°38' E 136°57'513.1
2018-Feb-18 17:59N 34°34' E 137°01'812.5
2018-Feb-18 17:22N 34°33' E 137°10'512.8
2018-Feb-18 16:58N 34°33' E 137°16'4712.0
2018-Feb-18 13:03N 34°34' E 138°13'110.9
2018-Feb-18 13:00N 34°34' E 138°14'711.2
2018-Feb-18 12:23N 34°34' E 138°22'610.4
2018-Feb-18 11:51N 34°34' E 138°29'510.4
2018-Feb-18 11:24N 34°35' E 138°35'510.8
2018-Feb-18 10:59N 34°35' E 138°40'511.0
2018-Feb-18 10:30N 34°35' E 138°47'510.8
2018-Feb-18 10:00N 34°36' E 138°53'611.5
2018-Feb-18 09:29N 34°38' E 138°60'613.3
2018-Feb-18 09:00N 34°43' E 139°05'713.8
2018-Feb-18 08:30N 34°49' E 139°10'713.1
2018-Feb-18 07:59N 34°54' E 139°15'612.0
2018-Feb-18 07:29N 34°57' E 139°21'611.6
2018-Feb-18 06:59N 34°60' E 139°27'511.3
2018-Feb-18 06:30N 35°02' E 139°33'612.6
2018-Feb-18 06:00N 35°06' E 139°40'713.3
2018-Feb-18 05:30N 35°10' E 139°45'612.3
2018-Feb-18 05:00N 35°17' E 139°45'612.2
2018-Feb-18 04:31N 35°22' E 139°42'612.3
2018-Feb-18 04:01N 35°27' E 139°46'4 8.1
2018-Feb-18 03:31N 35°31' E 139°46'0 0.4
2018-Feb-18 03:00N 35°31' E 139°46'0 0.0
2018-Feb-18 02:30N 35°31' E 139°46'0 0.0
2018-Feb-18 02:00N 35°31' E 139°46'0 0.0
2018-Feb-18 01:30N 35°31' E 139°46'0 0.0
2018-Feb-18 01:00N 35°31' E 139°46'0 0.0
2018-Feb-18 00:30N 35°31' E 139°46'0 0.0
2018-Feb-18 00:00N 35°31' E 139°46'0 0.0
2018-Feb-17 23:31N 35°31' E 139°46'0 0.0
2018-Feb-17 23:01N 35°31' E 139°46'0 0.9
2018-Feb-17 22:31N 35°31' E 139°46'4 7.4
2018-Feb-17 22:01N 35°30' E 139°50'4 8.5
2018-Feb-17 21:30N 35°34' E 139°54'0 0.3
2018-Feb-17 21:00N 35°34' E 139°54'0 0.1
2018-Feb-17 20:30N 35°34' E 139°54'0 0.1
2018-Feb-17 19:57N 35°34' E 139°54'0 0.1
2018-Feb-17 19:30N 35°34' E 139°54'0 0.0
2018-Feb-17 18:00N 35°34' E 139°54'0 0.0
2018-Feb-17 16:48N 35°34' E 139°54'0 0.1
2018-Feb-17 16:18N 35°34' E 139°54'0 0.0
2018-Feb-17 15:51N 35°34' E 139°54'0 0.0
2018-Feb-17 15:27N 35°34' E 139°54'0 0.0
2018-Feb-17 14:54N 35°34' E 139°54'0 0.0
2018-Feb-17 13:51N 35°34' E 139°54'0 0.1
2018-Feb-17 13:06N 35°34' E 139°54'0 0.0
2018-Feb-17 12:54N 35°34' E 139°54'0 0.0
2018-Feb-17 12:27N 35°34' E 139°54'0 0.0
2018-Feb-17 12:00N 35°34' E 139°54'0 0.1
2018-Feb-17 11:27N 35°34' E 139°54'0 0.0
2018-Feb-17 10:54N 35°34' E 139°54'0 0.1
2018-Feb-17 10:24N 35°34' E 139°54'0 0.1
2018-Feb-17 09:54N 35°34' E 139°54'0 0.0
2018-Feb-17 09:21N 35°34' E 139°54'0 0.0
2018-Feb-17 08:54N 35°34' E 139°54'0 0.0
2018-Feb-17 08:21N 35°34' E 139°54'0 0.0
2018-Feb-17 07:33N 35°34' E 139°54'0 0.0
2018-Feb-17 07:27N 35°34' E 139°54'0 0.1
2018-Feb-17 06:54N 35°34' E 139°54'0 0.1
2018-Feb-17 06:30N 35°34' E 139°54'0 0.0
2018-Feb-17 05:57N 35°34' E 139°54'0 0.0
2018-Feb-17 02:36N 35°34' E 139°54'0 0.1
2018-Feb-17 02:30N 35°34' E 139°54'0 0.0
2018-Feb-17 00:48N 35°34' E 139°54'0 0.0
2018-Feb-17 00:30N 35°34' E 139°54'0 0.0
2018-Feb-16 23:54N 35°34' E 139°54'0 0.0
2018-Feb-16 23:12N 35°34' E 139°54'0 0.0
2018-Feb-16 23:00N 35°34' E 139°54'0 0.0
2018-Feb-16 22:27N 35°34' E 139°54'0 0.0
2018-Feb-16 21:57N 35°34' E 139°54'0 0.0
2018-Feb-16 20:48N 35°34' E 139°54'0 0.0
2018-Feb-16 20:27N 35°34' E 139°54'1 2.8
2018-Feb-16 20:00N 35°32' E 139°54'613.0
2018-Feb-16 19:30N 35°27' E 139°49'612.6
2018-Feb-16 19:01N 35°22' E 139°45'612.1
2018-Feb-16 18:31N 35°16' E 139°47'713.1
2018-Feb-16 18:01N 35°09' E 139°46'713.0
2018-Feb-16 17:30N 35°03' E 139°42'713.7
2018-Feb-16 16:59N 34°59' E 139°36'915.1
2018-Feb-16 16:23N 34°54' E 139°27'615.6
2018-Feb-16 16:00N 34°50' E 139°21'715.0
2018-Feb-16 15:30N 34°46' E 139°13'714.6
2018-Feb-16 15:00N 34°42' E 139°06'714.6
2018-Feb-16 14:30N 34°37' E 138°59'714.6
2018-Feb-16 14:00N 34°35' E 138°51'714.5
2018-Feb-16 13:30N 34°34' E 138°42'714.3
2018-Feb-16 12:59N 34°34' E 138°33'713.7
2018-Feb-16 12:30N 34°33' E 138°25'714.4
2018-Feb-16 11:59N 34°32' E 138°16'2013.9
2018-Feb-16 10:32N 34°32' E 137°52'313.0
2018-Feb-16 10:21N 34°32' E 137°49'512.6
2018-Feb-16 09:58N 34°32' E 137°43'1612.4
2018-Feb-16 08:40N 34°32' E 137°23'513.1
2018-Feb-16 08:15N 34°32' E 137°17'2112.1
2018-Feb-16 06:30N 34°38' E 136°52'712.9
2018-Feb-16 05:59N 34°44' E 136°47'613.4
2018-Feb-16 05:30N 34°49' E 136°44'713.2
2018-Feb-16 05:00N 34°55' E 136°41'3 4.7
2018-Feb-16 04:28N 34°58' E 136°39'0 0.0
2018-Feb-16 03:58N 34°58' E 136°39'0 0.1
2018-Feb-16 03:30N 34°58' E 136°39'1 2.1
2018-Feb-16 03:00N 34°57' E 136°38'0 0.0
2018-Feb-16 02:30N 34°57' E 136°38'0 0.0
2018-Feb-16 02:00N 34°57' E 136°38'0 0.1
2018-Feb-16 01:30N 34°57' E 136°38'0 0.0
2018-Feb-16 01:00N 34°57' E 136°38'0 0.2
2018-Feb-16 00:30N 34°57' E 136°38'2 3.7
2018-Feb-16 00:01N 34°57' E 136°41'0 0.1
2018-Feb-15 23:30N 34°57' E 136°41'0 0.0
2018-Feb-15 22:59N 34°57' E 136°41'0 0.0
2018-Feb-15 22:23N 34°57' E 136°41'0 0.0
2018-Feb-15 21:59N 34°57' E 136°41'0 0.0
2018-Feb-15 21:29N 34°57' E 136°41'0 0.0
2018-Feb-15 20:59N 34°57' E 136°41'0 0.0
2018-Feb-15 20:26N 34°57' E 136°41'0 0.0
2018-Feb-15 19:56N 34°57' E 136°41'0 0.0
2018-Feb-15 19:29N 34°57' E 136°41'0 0.0
2018-Feb-15 18:59N 34°57' E 136°41'0 0.0
2018-Feb-15 18:29N 34°57' E 136°41'0 0.0
2018-Feb-15 17:59N 34°57' E 136°41'0 0.0
2018-Feb-15 17:29N 34°57' E 136°41'0 0.0
2018-Feb-15 16:59N 34°57' E 136°41'0 0.0
2018-Feb-15 16:29N 34°57' E 136°41'0 0.0
2018-Feb-15 15:59N 34°57' E 136°41'0 0.0
2018-Feb-15 15:29N 34°57' E 136°41'0 0.0
2018-Feb-15 14:59N 34°57' E 136°41'0 0.0
2018-Feb-15 14:29N 34°57' E 136°41'0 0.0
2018-Feb-15 13:59N 34°57' E 136°41'0 0.0
2018-Feb-15 13:26N 34°57' E 136°41'0 0.0
2018-Feb-15 12:56N 34°57' E 136°41'0 0.0
2018-Feb-15 12:29N 34°57' E 136°41'0 0.0
2018-Feb-15 11:59N 34°57' E 136°41'0 0.0
2018-Feb-15 11:29N 34°57' E 136°41'0 0.0
2018-Feb-15 10:59N 34°57' E 136°41'0 0.0
2018-Feb-15 10:29N 34°57' E 136°41'0 0.0
2018-Feb-15 09:59N 34°57' E 136°41'0 0.0
2018-Feb-15 09:26N 34°57' E 136°41'0 0.1
2018-Feb-15 08:59N 34°57' E 136°41'0 0.0
2018-Feb-15 08:29N 34°57' E 136°41'0 0.0
2018-Feb-15 07:59N 34°57' E 136°41'0 0.1
2018-Feb-15 07:29N 34°57' E 136°41'0 0.0
2018-Feb-15 06:59N 34°57' E 136°41'0 0.1
2018-Feb-15 06:23N 34°57' E 136°41'0 0.1
2018-Feb-15 05:59N 34°57' E 136°41'0 0.1
2018-Feb-15 05:29N 34°58' E 136°41'0 0.1
2018-Feb-15 04:59N 34°57' E 136°41'0 0.0
2018-Feb-15 04:26N 34°57' E 136°41'0 0.1
2018-Feb-15 03:59N 34°57' E 136°41'0 0.1
2018-Feb-15 03:30N 34°57' E 136°41'510.6
2018-Feb-15 03:00N 34°53' E 136°43'612.7
2018-Feb-15 02:30N 34°47' E 136°47'612.6
2018-Feb-15 02:00N 34°42' E 136°51'102 8.5
2018-Feb-14 14:01N 33°49' E 135°06'213.5
2018-Feb-14 13:54N 33°50' E 135°04'513.3
2018-Feb-14 13:30N 33°55' E 135°01'713.2
2018-Feb-14 13:00N 34°01' E 134°60'713.0
2018-Feb-14 12:30N 34°08' E 134°59'612.9
2018-Feb-14 12:00N 34°14' E 134°59'612.3
2018-Feb-14 11:30N 34°20' E 134°60'612.7
2018-Feb-14 11:00N 34°27' E 135°01'612.5
2018-Feb-14 10:30N 34°33' E 135°03'5 9.3
2018-Feb-14 10:00N 34°37' E 135°00'611.8
2018-Feb-14 09:30N 34°35' E 134°54'612.4
2018-Feb-14 09:00N 34°33' E 134°47'612.9
2018-Feb-14 08:30N 34°30' E 134°40'713.0
2018-Feb-14 08:00N 34°28' E 134°32'712.9
2018-Feb-14 07:30N 34°25' E 134°25'1012.7
2018-Feb-14 06:44N 34°24' E 134°13'7 0.6
2018-Feb-13 19:32N 34°23' E 134°21'113.4
2018-Feb-13 19:28N 34°22' E 134°22'613.4
2018-Feb-13 19:00N 34°20' E 134°29'713.4
2018-Feb-13 18:28N 34°17' E 134°36'613.5
2018-Feb-13 18:00N 34°12' E 134°41'713.4
2018-Feb-13 17:30N 34°07' E 134°47'713.2
2018-Feb-13 17:00N 34°02' E 134°52'713.1
2018-Feb-13 16:30N 33°57' E 134°57'612.9
2018-Feb-13 16:00N 33°52' E 135°02'612.6
2018-Feb-13 15:30N 33°47' E 135°07'  
Track history (hours):
 
Tides and Currents Weather Stations Pressure Air Temp Water Temp Dewpoint Dewpoint Depression Visibility Wind Speed Wind Dir Waves Ship Positions

Ryoka Maru No.103

Last reported at 2018-Feb-23 08:30 UTC. Time now 2018-Feb-23 08:35 UTC.
Position N 34°52' E 136°42'.

Length 69 m; draft 4.5 m.

Type: Tanker. MMSI: 431401796.

Date/timePositionNaut miles runAvg speedWind from/ knotsBaromVisibWave heightAir tempDewpointWater temp
2018-Feb-23 08:30N 34°52' E 136°42'612.9
2018-Feb-23 08:00N 34°46' E 136°45'712.5
2018-Feb-23 07:28N 34°41' E 136°51'101 8.9
2018-Feb-22 20:07N 33°46' E 135°09'513.1
2018-Feb-22 19:42N 33°50' E 135°04'313.5
2018-Feb-22 19:31N 33°52' E 135°02'713.3
2018-Feb-22 19:01N 33°58' E 134°60'713.7
2018-Feb-22 18:30N 34°05' E 134°59'713.4
2018-Feb-22 18:00N 34°12' E 134°59'612.3
2018-Feb-22 17:31N 34°18' E 134°59'612.2
2018-Feb-22 17:01N 34°24' E 135°01'612.8
2018-Feb-22 16:31N 34°30' E 135°02'611.6
2018-Feb-22 16:00N 34°36' E 135°03'5 9.1
2018-Feb-22 15:30N 34°36' E 134°57'511.0
2018-Feb-22 15:00N 34°34' E 134°51'612.1
2018-Feb-22 14:30N 34°32' E 134°45'612.2
2018-Feb-22 14:00N 34°29' E 134°38'713.0
2018-Feb-22 13:27N 34°27' E 134°30'1312.8
2018-Feb-22 12:24N 34°24' E 134°14'4 0.3
2018-Feb-21 21:57N 34°24' E 134°19'613.2
2018-Feb-21 21:30N 34°26' E 134°26'613.3
2018-Feb-21 21:01N 34°29' E 134°33'713.2
2018-Feb-21 20:30N 34°31' E 134°40'713.1
2018-Feb-21 20:00N 34°33' E 134°48'612.6
2018-Feb-21 19:30N 34°36' E 134°55'611.9
2018-Feb-21 19:00N 34°37' E 135°02'510.8
2018-Feb-21 18:30N 34°32' E 135°05'713.4
2018-Feb-21 18:00N 34°26' E 135°02'713.4
2018-Feb-21 17:30N 34°19' E 135°00'713.4
2018-Feb-21 17:00N 34°13' E 134°59'713.5
2018-Feb-21 16:30N 34°06' E 135°00'713.2
2018-Feb-21 16:00N 33°59' E 135°01'713.3
2018-Feb-21 15:30N 33°53' E 135°02'713.4
2018-Feb-21 14:58N 33°47' E 135°07'101 9.4
2018-Feb-21 04:16N 34°39' E 136°52'413.8
2018-Feb-21 04:00N 34°42' E 136°49'714.0
2018-Feb-21 03:30N 34°48' E 136°45'713.5
2018-Feb-21 03:00N 34°54' E 136°42'4 7.8
2018-Feb-21 02:31N 34°57' E 136°38'0 0.0
2018-Feb-21 02:00N 34°57' E 136°38'0 0.0
2018-Feb-21 01:30N 34°57' E 136°38'0 0.0
2018-Feb-21 01:00N 34°57' E 136°38'0 0.0
2018-Feb-21 00:30N 34°57' E 136°38'0 0.7
2018-Feb-21 00:01N 34°57' E 136°39'1 2.5
2018-Feb-20 23:30N 34°57' E 136°40'0 0.0
2018-Feb-20 22:59N 34°57' E 136°40'0 0.1
2018-Feb-20 22:29N 34°57' E 136°40'0 0.0
2018-Feb-20 21:59N 34°57' E 136°40'0 0.0
2018-Feb-20 21:29N 34°57' E 136°40'0 0.1
2018-Feb-20 20:59N 34°57' E 136°40'0 0.0
2018-Feb-20 20:30N 34°57' E 136°40'4 8.4
2018-Feb-20 20:00N 34°53' E 136°43'713.0
2018-Feb-20 19:30N 34°48' E 136°46'712.7
2018-Feb-20 18:59N 34°42' E 136°50'1012.6
2018-Feb-20 18:13N 34°35' E 136°59'312.6
2018-Feb-20 17:57N 34°33' E 137°02'612.5
2018-Feb-20 17:28N 34°33' E 137°09'612.5
2018-Feb-20 17:00N 34°33' E 137°16'5011.8
2018-Feb-20 12:46N 34°34' E 138°17'410.0
2018-Feb-20 12:23N 34°34' E 138°22'4 9.5
2018-Feb-20 11:59N 34°34' E 138°26'5 9.6
2018-Feb-20 11:30N 34°35' E 138°32'610.8
2018-Feb-20 10:58N 34°35' E 138°39'510.9
2018-Feb-20 10:30N 34°35' E 138°45'611.0
2018-Feb-20 09:59N 34°35' E 138°52'611.8
2018-Feb-20 09:26N 34°37' E 138°59'614.1
2018-Feb-20 08:59N 34°42' E 139°04'714.1
2018-Feb-20 08:30N 34°48' E 139°09'713.1
2018-Feb-20 07:58N 34°53' E 139°14'612.1
2018-Feb-20 07:29N 34°57' E 139°20'612.3
2018-Feb-20 06:58N 35°00' E 139°26'612.5
2018-Feb-20 06:30N 35°03' E 139°33'612.7
2018-Feb-20 06:00N 35°06' E 139°39'613.0
2018-Feb-20 05:30N 35°10' E 139°45'612.6
2018-Feb-20 05:00N 35°17' E 139°45'612.4
2018-Feb-20 04:30N 35°22' E 139°42'612.4
2018-Feb-20 04:00N 35°27' E 139°47'812.5
2018-Feb-20 03:24N 35°31' E 139°55'511.9
2018-Feb-20 03:00N 35°32' E 140°01'2 4.7
2018-Feb-20 02:30N 35°32' E 140°03'0 0.0
2018-Feb-20 01:58N 35°32' E 140°03'0 0.0
2018-Feb-20 01:30N 35°32' E 140°03'0 0.0
2018-Feb-20 01:00N 35°32' E 140°03'0 0.0
2018-Feb-20 00:30N 35°32' E 140°03'0 0.0
2018-Feb-20 00:00N 35°32' E 140°03'0 0.5
2018-Feb-19 23:30N 35°32' E 140°03'3 6.0
2018-Feb-19 23:00N 35°31' E 139°60'1 0.9
2018-Feb-19 22:23N 35°30' E 139°60'0 0.0
2018-Feb-19 21:59N 35°30' E 139°60'0 0.0
2018-Feb-19 21:20N 35°30' E 139°60'0 0.0
2018-Feb-19 20:56N 35°30' E 139°60'0 0.0
2018-Feb-19 20:26N 35°30' E 139°60'0 0.0
2018-Feb-19 19:59N 35°30' E 139°60'0 0.0
2018-Feb-19 19:29N 35°30' E 139°60'1 2.4
2018-Feb-19 19:01N 35°30' E 139°58'612.9
2018-Feb-19 18:30N 35°28' E 139°51'713.1
2018-Feb-19 18:00N 35°23' E 139°46'612.2
2018-Feb-19 17:30N 35°17' E 139°46'612.7
2018-Feb-19 17:01N 35°10' E 139°47'713.0
2018-Feb-19 16:30N 35°05' E 139°43'713.1
2018-Feb-19 16:00N 34°60' E 139°37'713.3
2018-Feb-19 15:30N 34°56' E 139°30'713.5
2018-Feb-19 15:00N 34°52' E 139°24'714.1
2018-Feb-19 14:30N 34°48' E 139°17'914.3
2018-Feb-19 13:51N 34°42' E 139°08'513.4
2018-Feb-19 13:31N 34°39' E 139°04'713.7
2018-Feb-19 13:00N 34°36' E 138°56'714.1
2018-Feb-19 12:29N 34°34' E 138°48'713.4
2018-Feb-19 11:58N 34°34' E 138°39'714.2
2018-Feb-19 11:30N 34°33' E 138°31'713.9
2018-Feb-19 11:00N 34°33' E 138°23'713.7
2018-Feb-19 10:30N 34°32' E 138°15'1214.1
2018-Feb-19 09:40N 34°32' E 138°00'314.1
2018-Feb-19 09:26N 34°32' E 137°56'5213.1
2018-Feb-19 05:29N 34°37' E 136°54'613.2
2018-Feb-19 05:00N 34°41' E 136°49'713.8
2018-Feb-19 04:30N 34°48' E 136°45'713.3
2018-Feb-19 04:00N 34°54' E 136°41'4 8.3
2018-Feb-19 03:31N 34°57' E 136°38'0 0.1
2018-Feb-19 03:01N 34°57' E 136°38'0 0.0
2018-Feb-19 02:30N 34°57' E 136°38'0 0.0
2018-Feb-19 02:00N 34°57' E 136°38'0 0.1
2018-Feb-19 01:31N 34°57' E 136°38'0 0.4
2018-Feb-19 00:58N 34°57' E 136°39'3 6.2
2018-Feb-19 00:31N 34°57' E 136°42'1 2.3
2018-Feb-19 00:00N 34°56' E 136°43'0 0.1
2018-Feb-18 23:27N 34°56' E 136°43'0 0.0
2018-Feb-18 23:00N 34°56' E 136°43'0 0.0
2018-Feb-18 22:27N 34°56' E 136°43'0 0.0
2018-Feb-18 22:00N 34°56' E 136°43'0 0.0
2018-Feb-18 21:30N 34°56' E 136°43'0 0.0
2018-Feb-18 21:00N 34°56' E 136°43'0 0.0
2018-Feb-18 20:30N 34°56' E 136°43'2 3.5
2018-Feb-18 20:00N 34°54' E 136°43'611.8
2018-Feb-18 19:30N 34°49' E 136°45'712.7
2018-Feb-18 18:58N 34°43' E 136°50'813.0
2018-Feb-18 18:23N 34°38' E 136°57'513.1
2018-Feb-18 17:59N 34°34' E 137°01'812.5
2018-Feb-18 17:22N 34°33' E 137°10'512.8
2018-Feb-18 16:58N 34°33' E 137°16'4712.0
2018-Feb-18 13:03N 34°34' E 138°13'110.9
2018-Feb-18 13:00N 34°34' E 138°14'711.2
2018-Feb-18 12:23N 34°34' E 138°22'610.4
2018-Feb-18 11:51N 34°34' E 138°29'510.4
2018-Feb-18 11:24N 34°35' E 138°35'510.8
2018-Feb-18 10:59N 34°35' E 138°40'511.0
2018-Feb-18 10:30N 34°35' E 138°47'510.8
2018-Feb-18 10:00N 34°36' E 138°53'611.5
2018-Feb-18 09:29N 34°38' E 138°60'613.3
2018-Feb-18 09:00N 34°43' E 139°05'713.8
2018-Feb-18 08:30N 34°49' E 139°10'713.1
2018-Feb-18 07:59N 34°54' E 139°15'612.0
2018-Feb-18 07:29N 34°57' E 139°21'611.6
2018-Feb-18 06:59N 34°60' E 139°27'511.3
2018-Feb-18 06:30N 35°02' E 139°33'612.6
2018-Feb-18 06:00N 35°06' E 139°40'713.3
2018-Feb-18 05:30N 35°10' E 139°45'612.3
2018-Feb-18 05:00N 35°17' E 139°45'612.2
2018-Feb-18 04:31N 35°22' E 139°42'612.3
2018-Feb-18 04:01N 35°27' E 139°46'4 8.1
2018-Feb-18 03:31N 35°31' E 139°46'0 0.4
2018-Feb-18 03:00N 35°31' E 139°46'0 0.0
2018-Feb-18 02:30N 35°31' E 139°46'0 0.0
2018-Feb-18 02:00N 35°31' E 139°46'0 0.0
2018-Feb-18 01:30N 35°31' E 139°46'0 0.0
2018-Feb-18 01:00N 35°31' E 139°46'0 0.0
2018-Feb-18 00:30N 35°31' E 139°46'0 0.0
2018-Feb-18 00:00N 35°31' E 139°46'0 0.0
2018-Feb-17 23:31N 35°31' E 139°46'0 0.0
2018-Feb-17 23:01N 35°31' E 139°46'0 0.9
2018-Feb-17 22:31N 35°31' E 139°46'4 7.4
2018-Feb-17 22:01N 35°30' E 139°50'4 8.5
2018-Feb-17 21:30N 35°34' E 139°54'0 0.3
2018-Feb-17 21:00N 35°34' E 139°54'0 0.1
2018-Feb-17 20:30N 35°34' E 139°54'0 0.1
2018-Feb-17 19:57N 35°34' E 139°54'0 0.1
2018-Feb-17 19:30N 35°34' E 139°54'0 0.0
2018-Feb-17 18:00N 35°34' E 139°54'0 0.0
2018-Feb-17 16:48N 35°34' E 139°54'0 0.1
2018-Feb-17 16:18N 35°34' E 139°54'0 0.0
2018-Feb-17 15:51N 35°34' E 139°54'0 0.0
2018-Feb-17 15:27N 35°34' E 139°54'0 0.0
2018-Feb-17 14:54N 35°34' E 139°54'0 0.0
2018-Feb-17 13:51N 35°34' E 139°54'0 0.1
2018-Feb-17 13:06N 35°34' E 139°54'0 0.0
2018-Feb-17 12:54N 35°34' E 139°54'0 0.0
2018-Feb-17 12:27N 35°34' E 139°54'0 0.0
2018-Feb-17 12:00N 35°34' E 139°54'0 0.1
2018-Feb-17 11:27N 35°34' E 139°54'0 0.0
2018-Feb-17 10:54N 35°34' E 139°54'0 0.1
2018-Feb-17 10:24N 35°34' E 139°54'0 0.1
2018-Feb-17 09:54N 35°34' E 139°54'0 0.0
2018-Feb-17 09:21N 35°34' E 139°54'0 0.0
2018-Feb-17 08:54N 35°34' E 139°54'0 0.0
2018-Feb-17 08:21N 35°34' E 139°54'0 0.0
2018-Feb-17 07:33N 35°34' E 139°54'0 0.0
2018-Feb-17 07:27N 35°34' E 139°54'0 0.1
2018-Feb-17 06:54N 35°34' E 139°54'0 0.1
2018-Feb-17 06:30N 35°34' E 139°54'0 0.0
2018-Feb-17 05:57N 35°34' E 139°54'0 0.0
2018-Feb-17 02:36N 35°34' E 139°54'0 0.1
2018-Feb-17 02:30N 35°34' E 139°54'0 0.0
2018-Feb-17 00:48N 35°34' E 139°54'0 0.0
2018-Feb-17 00:30N 35°34' E 139°54'0 0.0
2018-Feb-16 23:54N 35°34' E 139°54'0 0.0
2018-Feb-16 23:12N 35°34' E 139°54'0 0.0
2018-Feb-16 23:00N 35°34' E 139°54'0 0.0
2018-Feb-16 22:27N 35°34' E 139°54'0 0.0
2018-Feb-16 21:57N 35°34' E 139°54'0 0.0
2018-Feb-16 20:48N 35°34' E 139°54'0 0.0
2018-Feb-16 20:27N 35°34' E 139°54'1 2.8
2018-Feb-16 20:00N 35°32' E 139°54'613.0
2018-Feb-16 19:30N 35°27' E 139°49'612.6
2018-Feb-16 19:01N 35°22' E 139°45'612.1
2018-Feb-16 18:31N 35°16' E 139°47'713.1
2018-Feb-16 18:01N 35°09' E 139°46'713.0
2018-Feb-16 17:30N 35°03' E 139°42'713.7
2018-Feb-16 16:59N 34°59' E 139°36'915.1
2018-Feb-16 16:23N 34°54' E 139°27'615.6
2018-Feb-16 16:00N 34°50' E 139°21'715.0
2018-Feb-16 15:30N 34°46' E 139°13'714.6
2018-Feb-16 15:00N 34°42' E 139°06'714.6
2018-Feb-16 14:30N 34°37' E 138°59'714.6
2018-Feb-16 14:00N 34°35' E 138°51'714.5
2018-Feb-16 13:30N 34°34' E 138°42'714.3
2018-Feb-16 12:59N 34°34' E 138°33'713.7
2018-Feb-16 12:30N 34°33' E 138°25'714.4
2018-Feb-16 11:59N 34°32' E 138°16'2013.9
2018-Feb-16 10:32N 34°32' E 137°52'313.0
2018-Feb-16 10:21N 34°32' E 137°49'512.6
2018-Feb-16 09:58N 34°32' E 137°43'1612.4
2018-Feb-16 08:40N 34°32' E 137°23'513.1
2018-Feb-16 08:15N 34°32' E 137°17'2112.1
2018-Feb-16 06:30N 34°38' E 136°52'712.9
2018-Feb-16 05:59N 34°44' E 136°47'613.4
2018-Feb-16 05:30N 34°49' E 136°44'713.2
2018-Feb-16 05:00N 34°55' E 136°41'3 4.7
2018-Feb-16 04:28N 34°58' E 136°39'0 0.0
2018-Feb-16 03:58N 34°58' E 136°39'0 0.1
2018-Feb-16 03:30N 34°58' E 136°39'1 2.1
2018-Feb-16 03:00N 34°57' E 136°38'0 0.0
2018-Feb-16 02:30N 34°57' E 136°38'0 0.0
2018-Feb-16 02:00N 34°57' E 136°38'0 0.1
2018-Feb-16 01:30N 34°57' E 136°38'0 0.0
2018-Feb-16 01:00N 34°57' E 136°38'0 0.2
2018-Feb-16 00:30N 34°57' E 136°38'2 3.7
2018-Feb-16 00:01N 34°57' E 136°41'0 0.1
2018-Feb-15 23:30N 34°57' E 136°41'0 0.0
2018-Feb-15 22:59N 34°57' E 136°41'0 0.0
2018-Feb-15 22:23N 34°57' E 136°41'0 0.0
2018-Feb-15 21:59N 34°57' E 136°41'0 0.0
2018-Feb-15 21:29N 34°57' E 136°41'0 0.0
2018-Feb-15 20:59N 34°57' E 136°41'0 0.0
2018-Feb-15 20:26N 34°57' E 136°41'0 0.0
2018-Feb-15 19:56N 34°57' E 136°41'0 0.0
2018-Feb-15 19:29N 34°57' E 136°41'0 0.0
2018-Feb-15 18:59N 34°57' E 136°41'0 0.0
2018-Feb-15 18:29N 34°57' E 136°41'0 0.0
2018-Feb-15 17:59N 34°57' E 136°41'0 0.0
2018-Feb-15 17:29N 34°57' E 136°41'0 0.0
2018-Feb-15 16:59N 34°57' E 136°41'0 0.0
2018-Feb-15 16:29N 34°57' E 136°41'0 0.0
2018-Feb-15 15:59N 34°57' E 136°41'0 0.0
2018-Feb-15 15:29N 34°57' E 136°41'0 0.0
2018-Feb-15 14:59N 34°57' E 136°41'0 0.0
2018-Feb-15 14:29N 34°57' E 136°41'0 0.0
2018-Feb-15 13:59N 34°57' E 136°41'0 0.0
2018-Feb-15 13:26N 34°57' E 136°41'0 0.0
2018-Feb-15 12:56N 34°57' E 136°41'0 0.0
2018-Feb-15 12:29N 34°57' E 136°41'0 0.0
2018-Feb-15 11:59N 34°57' E 136°41'0 0.0
2018-Feb-15 11:29N 34°57' E 136°41'0 0.0
2018-Feb-15 10:59N 34°57' E 136°41'0 0.0
2018-Feb-15 10:29N 34°57' E 136°41'0 0.0
2018-Feb-15 09:59N 34°57' E 136°41'0 0.0
2018-Feb-15 09:26N 34°57' E 136°41'0 0.1
2018-Feb-15 08:59N 34°57' E 136°41'0 0.0
2018-Feb-15 08:29N 34°57' E 136°41'0 0.0
2018-Feb-15 07:59N 34°57' E 136°41'0 0.1
2018-Feb-15 07:29N 34°57' E 136°41'0 0.0
2018-Feb-15 06:59N 34°57' E 136°41'0 0.1
2018-Feb-15 06:23N 34°57' E 136°41'0 0.1
2018-Feb-15 05:59N 34°57' E 136°41'0 0.1
2018-Feb-15 05:29N 34°58' E 136°41'0 0.1
2018-Feb-15 04:59N 34°57' E 136°41'0 0.0
2018-Feb-15 04:26N 34°57' E 136°41'0 0.1
2018-Feb-15 03:59N 34°57' E 136°41'0 0.1
2018-Feb-15 03:30N 34°57' E 136°41'510.6
2018-Feb-15 03:00N 34°53' E 136°43'612.7
2018-Feb-15 02:30N 34°47' E 136°47'612.6
2018-Feb-15 02:00N 34°42' E 136°51'102 8.5
2018-Feb-14 14:01N 33°49' E 135°06'213.5
2018-Feb-14 13:54N 33°50' E 135°04'513.3
2018-Feb-14 13:30N 33°55' E 135°01'713.2
2018-Feb-14 13:00N 34°01' E 134°60'713.0
2018-Feb-14 12:30N 34°08' E 134°59'612.9
2018-Feb-14 12:00N 34°14' E 134°59'612.3
2018-Feb-14 11:30N 34°20' E 134°60'612.7
2018-Feb-14 11:00N 34°27' E 135°01'612.5
2018-Feb-14 10:30N 34°33' E 135°03'5 9.3
2018-Feb-14 10:00N 34°37' E 135°00'611.8
2018-Feb-14 09:30N 34°35' E 134°54'612.4
2018-Feb-14 09:00N 34°33' E 134°47'612.9
2018-Feb-14 08:30N 34°30' E 134°40'713.0
2018-Feb-14 08:00N 34°28' E 134°32'712.9
2018-Feb-14 07:30N 34°25' E 134°25'1012.7
2018-Feb-14 06:44N 34°24' E 134°13'7 0.6
2018-Feb-13 19:32N 34°23' E 134°21'113.4
2018-Feb-13 19:28N 34°22' E 134°22'613.4
2018-Feb-13 19:00N 34°20' E 134°29'713.4
2018-Feb-13 18:28N 34°17' E 134°36'613.5
2018-Feb-13 18:00N 34°12' E 134°41'713.4
2018-Feb-13 17:30N 34°07' E 134°47'713.2
2018-Feb-13 17:00N 34°02' E 134°52'713.1
2018-Feb-13 16:30N 33°57' E 134°57'612.9
2018-Feb-13 16:00N 33°52' E 135°02'612.6
2018-Feb-13 15:30N 33°47' E 135°07'  

Dump ship's entire track history